createdAt,value
2023-03-08T01:54:29.485Z,99246.31
2023-03-08T05:28:48.177Z,99008.00
2023-03-08T05:31:19.775Z,99234.47
2023-03-08T05:33:53.916Z,99314.16
2023-03-08T06:07:58.369Z,99289.75
2023-03-08T06:10:28.593Z,99298.13
2023-03-08T06:12:58.543Z,99298.47
2023-03-08T06:15:28.457Z,99234.75
2023-03-08T06:17:59.723Z,99312.19
2023-03-08T06:20:30.141Z,99294.75
2023-03-08T06:23:02.468Z,99291.56
2023-03-08T06:25:33.767Z,99271.88
2023-03-08T06:28:03.741Z,99247.09
2023-03-08T08:06:11.247Z,99119.94
2023-03-08T08:08:57.785Z,99205.03
2023-03-08T08:11:35.706Z,99162.59
2023-03-08T08:14:10.721Z,99252.72
2023-03-08T08:16:42.700Z,99174.88
2023-03-08T08:19:17.652Z,99244.53
2023-03-08T08:21:49.713Z,99243.66
2023-03-08T08:24:21.408Z,99245.50
2023-03-08T08:26:57.882Z,99173.88
2023-03-08T09:15:01.093Z,99124.72
2023-03-08T09:18:18.187Z,99003.13
2023-03-08T09:22:14.591Z,99138.72
2023-03-08T09:45:41.987Z,98916.28
2023-03-08T10:35:16.035Z,98926.78
2023-03-08T10:38:19.118Z,99078.06
2023-03-08T11:01:22.454Z,98867.50
2023-03-08T11:04:57.281Z,99073.28
2023-03-08T11:07:43.240Z,98967.00
2023-03-08T11:11:04.444Z,99056.47
2023-03-08T11:18:19.842Z,99058.09
2023-03-08T11:57:38.134Z,98700.09
2023-03-08T12:05:42.181Z,98698.41
2023-03-08T12:09:38.109Z,98697.28
2023-03-08T12:13:00.298Z,98708.50
2023-03-08T12:15:51.797Z,98897.44
2023-03-08T12:18:30.094Z,98777.63
2023-03-08T12:29:33.061Z,98677.16
2023-03-08T12:40:38.510Z,98845.41
2023-03-08T12:43:56.515Z,98643.88
2023-03-08T12:47:22.098Z,98995.34
2023-03-08T12:50:01.879Z,98706.00
2023-03-08T12:52:45.164Z,98916.84
2023-03-08T12:55:31.370Z,98679.94
2023-03-08T12:58:03.767Z,98952.00
2023-03-08T13:00:36.002Z,98981.88
2023-03-08T13:03:28.345Z,98909.66
2023-03-08T13:05:58.082Z,98975.81
2023-03-08T13:08:37.694Z,98943.53
2023-03-08T13:11:13.481Z,98979.75
2023-03-08T13:13:50.083Z,98964.69
2023-03-08T13:16:33.614Z,98917.03
2023-03-08T13:48:43.210Z,98991.47
2023-03-08T13:52:43.360Z,98769.75
2023-03-08T13:55:43.715Z,98955.16
2023-03-08T14:13:54.968Z,98774.53
2023-03-08T14:40:00.896Z,98633.53
2023-03-08T14:42:54.637Z,98769.94
2023-03-08T14:45:26.835Z,98866.72
2023-03-08T14:47:58.440Z,98900.47
2023-03-08T14:50:30.694Z,98915.00
2023-03-08T14:53:02.172Z,98870.22
2023-03-08T14:55:33.732Z,98868.81
2023-03-08T14:58:11.405Z,98879.91
2023-03-08T15:00:52.441Z,98850.19
2023-03-08T15:03:22.298Z,98788.22
2023-03-08T15:05:52.245Z,98841.69
2023-03-08T15:08:22.235Z,98854.25
2023-03-08T15:10:52.794Z,98829.22
2023-03-08T15:13:27.451Z,98812.81
2023-03-08T15:16:01.041Z,98848.66
2023-03-08T15:18:30.817Z,98833.44
2023-03-08T15:21:00.504Z,98876.66
2023-03-08T15:23:34.109Z,98895.47
2023-03-08T15:26:04.755Z,98853.75
2023-03-08T15:28:43.335Z,98812.09
2023-03-08T15:31:15.575Z,98896.97
2023-03-08T15:33:50.113Z,98897.78
2023-03-08T15:36:26.732Z,98886.97
2023-03-08T15:38:57.500Z,98845.28
2023-03-08T15:41:27.657Z,98892.00
2023-03-08T15:44:00.047Z,98877.59
2023-03-08T15:46:29.827Z,98858.09
2023-03-08T15:49:01.760Z,98828.66
2023-03-08T15:51:34.298Z,98877.97
2023-03-08T15:54:08.494Z,98886.47
2023-03-08T15:56:38.322Z,98901.66
2023-03-08T15:59:11.092Z,98879.69
2023-03-08T16:01:40.848Z,98894.53
2023-03-08T16:04:10.639Z,98852.66
2023-03-08T16:06:40.340Z,98870.78
2023-03-08T16:09:09.993Z,98906.63
2023-03-08T16:11:39.646Z,98888.59
2023-03-08T16:14:17.808Z,98882.47
2023-03-08T16:16:47.832Z,98871.72
2023-03-08T16:19:20.025Z,98899.09
2023-03-08T16:21:49.723Z,98864.50
2023-03-08T16:24:19.865Z,98889.06
2023-03-08T16:26:49.640Z,98852.81
2023-03-08T16:29:21.974Z,98883.53
2023-03-08T16:31:52.369Z,98839.16
2023-03-08T16:34:22.314Z,98898.41
2023-03-08T16:36:52.005Z,98909.31
2023-03-08T16:39:22.001Z,98886.69
2023-03-08T16:41:52.016Z,98873.94
2023-03-08T16:47:23.763Z,98823.72
2023-03-08T16:49:54.260Z,98898.13
2023-03-08T16:52:24.228Z,98860.63
2023-03-08T16:54:56.160Z,98918.47
2023-03-08T16:57:28.790Z,98821.84
2023-03-08T17:00:07.267Z,98924.38
2023-03-08T17:02:41.664Z,98827.69
2023-03-08T17:05:13.378Z,98827.53
2023-03-08T17:07:43.834Z,98841.28
2023-03-08T17:10:16.968Z,98824.91
2023-03-08T17:12:47.842Z,98837.47
2023-03-08T17:15:21.544Z,98827.09
2023-03-08T17:17:51.754Z,98900.19
2023-03-08T17:20:22.235Z,98844.16
2023-03-08T17:22:52.893Z,98857.75
2023-03-08T17:25:23.282Z,98856.72
2023-03-08T17:27:54.947Z,98867.78
2023-03-08T17:30:28.691Z,98845.78
2023-03-08T17:32:59.209Z,98822.13
2023-03-08T17:35:30.151Z,98845.13
2023-03-08T17:38:00.740Z,98902.59
2023-03-08T17:40:30.937Z,98917.91
2023-03-08T17:43:02.819Z,98841.09
2023-03-08T17:45:38.168Z,98889.81
2023-03-08T17:48:10.376Z,98796.13
2023-03-08T17:50:41.066Z,98823.94
2023-03-08T17:53:12.888Z,98888.09
2023-03-08T17:55:44.111Z,98865.41
2023-03-08T17:58:14.324Z,98885.63
2023-03-08T18:00:46.899Z,98889.22
2023-03-08T18:03:17.182Z,98859.41
2023-03-08T18:05:51.555Z,98868.41
2023-03-08T18:08:22.159Z,98822.13
2023-03-08T18:10:52.311Z,98796.81
2023-03-08T18:13:22.526Z,98897.25
2023-03-08T18:15:55.969Z,98811.66
2023-03-08T18:18:27.265Z,98763.38
2023-03-08T18:21:10.605Z,98898.16
2023-03-08T18:23:43.314Z,98888.75
2023-03-08T18:26:15.312Z,98831.81
2023-03-08T18:28:45.418Z,98891.38
2023-03-08T18:31:20.562Z,98876.31
2023-03-08T18:33:51.893Z,98784.22
2023-03-08T18:36:24.313Z,98860.78
2023-03-08T18:38:54.266Z,98854.75
2023-03-08T18:41:27.422Z,98804.47
2023-03-08T18:44:02.063Z,98890.50
2023-03-08T18:46:36.440Z,98792.13
2023-03-08T18:49:08.741Z,98879.59
2023-03-08T18:51:40.919Z,98864.34
2023-03-08T18:54:13.957Z,98823.50
2023-03-08T18:56:45.203Z,98857.72
2023-03-08T18:59:18.628Z,98832.31
2023-03-08T19:02:03.817Z,98783.88
2023-03-08T19:04:43.144Z,98857.75
2023-03-08T19:07:14.196Z,98809.00
2023-03-08T19:09:46.109Z,98879.22
2023-03-08T19:12:17.222Z,98874.88
2023-03-08T19:14:49.508Z,98744.53
2023-03-08T19:17:23.772Z,98805.28
2023-03-08T19:19:55.709Z,98830.16
2023-03-08T19:22:26.750Z,98787.03
2023-03-08T19:25:08.168Z,98774.66
2023-03-08T19:27:39.347Z,98873.13
2023-03-08T19:30:33.731Z,98797.00
2023-03-08T19:34:01.822Z,98653.34
2023-03-08T19:41:38.229Z,98614.22
2023-03-08T19:44:53.984Z,98500.53
2023-03-08T19:51:02.553Z,98818.19
2023-03-08T19:54:12.608Z,98515.22
2023-03-08T20:00:01.752Z,98742.59
2023-03-08T20:02:45.826Z,98754.72
2023-03-08T20:05:15.729Z,98715.41
2023-03-08T20:07:50.340Z,98858.66
2023-03-08T20:10:20.397Z,98802.41
2023-03-08T20:13:06.034Z,98872.09
2023-03-08T20:15:41.100Z,98750.31
2023-03-08T20:18:19.711Z,98676.34
2023-03-08T20:25:40.859Z,98577.34
2023-03-08T20:28:58.571Z,98811.38
2023-03-08T20:31:50.570Z,98517.41
2023-03-08T20:34:40.056Z,98788.97
2023-03-08T20:37:43.597Z,98823.69
2023-03-08T20:40:33.984Z,98794.22
2023-03-08T20:43:08.841Z,98850.38
2023-03-08T20:46:10.769Z,98857.63
2023-03-08T20:49:28.943Z,98697.69
2023-03-08T20:52:57.139Z,98596.66
2023-03-08T20:56:19.430Z,98716.59
2023-03-08T20:58:49.528Z,98812.69
2023-03-08T21:01:21.815Z,98767.69
2023-03-08T21:03:51.792Z,98811.81
2023-03-08T21:06:23.939Z,98781.38
2023-03-08T21:08:54.081Z,98814.63
2023-03-08T21:11:26.596Z,98796.75
2023-03-08T21:13:56.633Z,98786.59
2023-03-08T21:16:28.743Z,98837.41
2023-03-08T21:19:00.468Z,98815.47
2023-03-08T21:21:34.243Z,98801.00
2023-03-08T21:24:05.573Z,98824.19
2023-03-08T21:26:38.276Z,98805.41
2023-03-08T21:29:10.802Z,98740.94
2023-03-08T21:31:43.771Z,98783.75
2023-03-08T21:34:15.623Z,98771.47
2023-03-08T21:36:45.584Z,98762.97
2023-03-08T21:39:16.290Z,98771.53
2023-03-08T21:41:50.594Z,98775.31
2023-03-08T21:44:22.895Z,98665.78
2023-03-08T21:46:55.374Z,98756.44
2023-03-08T21:49:27.398Z,98782.69
2023-03-08T21:51:58.938Z,98696.06
2023-03-08T21:54:30.400Z,98761.81
2023-03-08T21:57:03.062Z,98604.56
2023-03-08T21:59:32.979Z,98749.03
2023-03-08T22:02:02.696Z,98745.38
2023-03-08T22:04:32.899Z,98762.56
2023-03-08T22:07:03.254Z,98731.28
2023-03-08T22:09:33.014Z,98773.06
2023-03-08T22:12:05.342Z,98733.16
2023-03-08T22:14:35.111Z,98778.00
2023-03-08T22:17:04.879Z,98769.78
2023-03-08T22:19:34.594Z,98740.88
2023-03-08T22:22:05.081Z,98749.56
2023-03-08T22:24:34.843Z,98685.78
2023-03-08T22:27:07.664Z,98721.47
2023-03-08T22:29:37.335Z,98725.44
2023-03-08T22:32:07.331Z,98741.63
2023-03-08T22:34:37.695Z,98733.94
2023-03-08T22:37:08.053Z,98744.34
2023-03-08T22:39:37.737Z,98737.50
2023-03-08T22:42:10.210Z,98696.88
2023-03-08T22:44:39.968Z,98723.22
2023-03-08T22:47:09.716Z,98688.19
2023-03-08T22:49:39.484Z,98709.28
2023-03-08T22:52:09.858Z,98696.53
2023-03-08T22:54:39.681Z,98744.22
2023-03-08T22:57:12.070Z,98743.25
2023-03-08T22:59:43.535Z,98753.19
2023-03-08T23:02:13.240Z,98748.44
2023-03-08T23:04:43.627Z,98704.25
2023-03-08T23:07:13.279Z,98715.16
2023-03-08T23:09:43.208Z,98697.47
2023-03-08T23:12:15.503Z,98716.16
2023-03-08T23:14:45.470Z,98718.66
2023-03-08T23:17:15.209Z,98571.34
2023-03-08T23:19:45.145Z,98729.25
2023-03-08T23:22:15.417Z,98722.16
2023-03-08T23:24:45.262Z,98699.47
2023-03-08T23:27:17.575Z,98732.91
2023-03-08T23:29:47.258Z,98730.03
2023-03-08T23:32:16.924Z,98739.38
2023-03-08T23:34:46.720Z,98676.47
2023-03-08T23:37:16.544Z,98693.44
2023-03-08T23:39:46.196Z,98717.00
2023-03-08T23:42:18.591Z,98726.97
2023-03-08T23:44:48.234Z,98683.72
2023-03-08T23:47:17.919Z,98673.41
2023-03-08T23:49:47.741Z,98684.00
2023-03-08T23:52:17.422Z,98678.91
2023-03-08T23:54:47.088Z,98664.88
2023-03-08T23:57:19.403Z,98714.66
2023-03-08T23:59:49.121Z,98661.72
